Time,TemperatureF,DewpointF,PressureIn,WindDirection,WindDirectionDegrees,WindSpeedMPH,WindSpeedGustMPH,Humidity,HourlyPrecipIn,Conditions,Clouds,dailyrainin,SoftwareType,DateUTC
2013-05-01 00:00:00,67.9,67.0,29.81,NE,45,2.0,6.0,97,0.00,,,-99.99,WeatherLink 5.6,2013-05-01 05:00:00,
2013-05-01 00:30:00,68.1,67.2,29.80,NE,45,0.0,3.0,97,0.00,,,-99.99,WeatherLink 5.6,2013-05-01 05:30:00,
2013-05-01 01:00:00,68.4,67.5,29.80,North,-999,0.0,0.0,97,0.00,,,-99.99,WeatherLink 5.6,2013-05-01 06:00:00,
2013-05-01 01:30:00,68.6,67.7,29.78,North,-999,0.0,0.0,97,0.00,,,-99.99,WeatherLink 5.6,2013-05-01 06:30:00,
2013-05-01 02:00:00,68.4,67.5,29.75,North,-999,0.0,0.0,97,0.00,,,-99.99,WeatherLink 5.6,2013-05-01 07:00:00,
2013-05-01 02:30:00,68.4,67.5,29.75,NE,45,0.0,2.0,97,0.00,,,-99.99,WeatherLink 5.6,2013-05-01 07:30:00,
2013-05-01 03:00:00,68.4,67.8,29.75,NE,45,1.0,4.0,98,0.00,,,-99.99,WeatherLink 5.6,2013-05-01 08:00:00,
2013-05-01 03:30:00,68.3,67.7,29.75,ENE,67,2.0,6.0,98,0.00,,,-99.99,WeatherLink 5.6,2013-05-01 08:30:00,
2013-05-01 04:00:00,68.3,67.7,29.76,East,90,0.0,3.0,98,0.00,,,-99.99,WeatherLink 5.6,2013-05-01 09:00:00,
2013-05-01 04:30:00,68.4,67.8,29.76,North,-999,0.0,0.0,98,0.00,,,-99.99,WeatherLink 5.6,2013-05-01 09:30:00,
2013-05-01 05:00:00,68.3,67.7,29.77,North,-999,0.0,0.0,98,0.00,,,-99.99,WeatherLink 5.6,2013-05-01 10:00:00,
2013-05-01 05:30:00,68.3,67.7,29.77,North,-999,0.0,0.0,98,0.00,,,-99.99,WeatherLink 5.6,2013-05-01 10:30:00,
2013-05-01 06:00:00,68.1,67.5,29.78,North,-999,0.0,0.0,98,0.00,,,-99.99,WeatherLink 5.6,2013-05-01 11:00:00,
2013-05-01 06:30:00,67.8,67.2,29.78,East,90,0.0,3.0,98,0.00,,,-99.99,WeatherLink 5.6,2013-05-01 11:30:00,
2013-05-01 07:00:00,67.9,67.3,29.80,North,-999,0.0,0.0,98,0.01,,,-99.99,WeatherLink 5.6,2013-05-01 12:00:00,
2013-05-01 07:30:00,68.8,68.2,29.80,NE,45,1.0,3.0,98,0.01,,,-99.99,WeatherLink 5.6,2013-05-01 12:30:00,
2013-05-01 08:00:00,69.8,69.2,29.81,ENE,67,1.0,4.0,98,0.00,,,-99.99,WeatherLink 5.6,2013-05-01 13:00:00,
2013-05-01 08:30:00,70.8,70.2,29.82,ENE,67,1.0,7.0,98,0.00,,,-99.99,WeatherLink 5.6,2013-05-01 13:30:00,
2013-05-01 09:00:00,71.5,70.0,29.82,ESE,112,2.0,10.0,95,0.00,,,-99.99,WeatherLink 5.6,2013-05-01 14:00:00,
2013-05-01 09:30:00,72.3,69.2,29.82,East,90,2.0,10.0,90,0.00,,,-99.99,WeatherLink 5.6,2013-05-01 14:30:00,
2013-05-01 10:00:00,73.9,68.4,29.83,SE,135,2.0,10.0,83,0.00,,,-99.99,WeatherLink 5.6,2013-05-01 15:00:00,
2013-05-01 10:30:00,75.8,69.6,29.83,ESE,112,3.0,13.0,81,0.00,,,-99.99,WeatherLink 5.6,2013-05-01 15:30:00,
2013-05-01 11:00:00,76.7,69.7,29.83,ESE,112,4.0,26.0,79,0.00,,,-99.99,WeatherLink 5.6,2013-05-01 16:00:00,
2013-05-01 11:30:00,76.3,70.0,29.81,SE,135,3.0,21.0,81,0.00,,,-99.99,WeatherLink 5.6,2013-05-01 16:30:00,
2013-05-01 12:00:00,77.2,70.2,29.80,SE,135,4.0,24.0,79,0.00,,,-99.99,WeatherLink 5.6,2013-05-01 17:00:00,
2013-05-01 12:30:00,78.5,71.1,29.79,SE,135,3.0,23.0,78,0.00,,,-99.99,WeatherLink 5.6,2013-05-01 17:30:00,
2013-05-01 13:00:00,79.9,70.9,29.78,SE,135,2.0,16.0,74,0.00,,,-99.99,WeatherLink 5.6,2013-05-01 18:00:00,
2013-05-01 13:30:00,76.1,69.8,29.77,SE,135,3.0,27.0,81,0.00,,,-99.99,WeatherLink 5.6,2013-05-01 18:30:00,
2013-05-01 14:00:00,74.6,70.1,29.76,SE,135,4.0,24.0,86,0.00,,,-99.99,WeatherLink 5.6,2013-05-01 19:00:00,
2013-05-01 14:30:00,73.9,70.1,29.77,ESE,112,2.0,16.0,88,0.00,,,-99.99,WeatherLink 5.6,2013-05-01 19:30:00,
2013-05-01 15:00:00,73.0,70.2,29.75,ESE,112,1.0,12.0,91,0.02,,,-99.99,WeatherLink 5.6,2013-05-01 20:00:00,
2013-05-01 15:30:00,72.1,70.0,29.74,SE,135,5.0,24.0,93,0.07,,,-99.99,WeatherLink 5.6,2013-05-01 20:30:00,
2013-05-01 16:00:00,72.0,70.5,29.74,SE,135,4.0,18.0,95,0.24,,,-99.99,WeatherLink 5.6,2013-05-01 21:00:00,
2013-05-01 16:30:00,72.3,70.8,29.74,SE,135,4.0,22.0,95,0.24,,,-99.99,WeatherLink 5.6,2013-05-01 21:30:00,
2013-05-01 17:00:00,72.1,70.6,29.77,SE,135,3.0,19.0,95,0.06,,,-99.99,WeatherLink 5.6,2013-05-01 22:00:00,
2013-05-01 17:30:00,65.6,63.2,29.77,NE,45,3.0,13.0,92,0.01,,,-99.99,WeatherLink 5.6,2013-05-01 22:30:00,
2013-05-01 18:00:00,65.6,63.5,29.76,NE,45,2.0,17.0,93,0.02,,,-99.99,WeatherLink 5.6,2013-05-01 23:00:00,
2013-05-01 18:30:00,65.6,64.1,29.77,NE,45,3.0,11.0,95,0.35,,,-99.99,WeatherLink 5.6,2013-05-01 23:30:00,
2013-05-01 19:00:00,65.5,64.3,29.77,NE,45,0.0,6.0,96,0.56,,,-99.99,WeatherLink 5.6,2013-05-02 00:00:00,
2013-05-01 19:30:00,65.5,64.3,29.80,North,-999,0.0,0.0,96,0.73,,,-99.99,WeatherLink 5.6,2013-05-02 00:30:00,
2013-05-01 20:00:00,65.0,64.1,29.81,ENE,67,1.0,5.0,97,1.19,,,-99.99,WeatherLink 5.6,2013-05-02 01:00:00,
2013-05-01 20:30:00,65.0,64.1,29.80,ENE,67,1.0,6.0,97,0.78,,,-99.99,WeatherLink 5.6,2013-05-02 01:30:00,
2013-05-01 21:00:00,64.5,63.6,29.80,East,90,2.0,10.0,97,0.18,,,-99.99,WeatherLink 5.6,2013-05-02 02:00:00,
2013-05-01 21:30:00,64.0,63.1,29.80,ESE,112,1.0,6.0,97,0.14,,,-99.99,WeatherLink 5.6,2013-05-02 02:30:00,
2013-05-01 22:00:00,63.2,62.3,29.78,ENE,67,1.0,7.0,97,0.07,,,-99.99,WeatherLink 5.6,2013-05-02 03:00:00,
2013-05-01 22:30:00,63.1,62.2,29.80,ENE,67,4.0,12.0,97,0.03,,,-99.99,WeatherLink 5.6,2013-05-02 03:30:00,
2013-05-01 23:00:00,63.5,62.9,29.79,ENE,67,2.0,10.0,98,0.01,,,-99.99,WeatherLink 5.6,2013-05-02 04:00:00,
2013-05-01 23:30:00,63.9,63.3,29.78,ENE,67,0.0,5.0,98,0.00,,,-99.99,WeatherLink 5.6,2013-05-02 04:30:00,